sensor_id;sensor_type;location;lat;lon;timestamp;P1;durP1;ratioP1;P2;durP2;ratioP2
42682;SDS011;28293;50.930;3.464;2022-07-23T00:00:08;15.23;;;10.70;;
42682;SDS011;28293;50.930;3.464;2022-07-23T00:02:35;14.18;;;9.52;;
42682;SDS011;28293;50.930;3.464;2022-07-23T00:05:00;15.20;;;10.55;;
42682;SDS011;28293;50.930;3.464;2022-07-23T00:07:27;12.65;;;9.80;;
42682;SDS011;28293;50.930;3.464;2022-07-23T00:09:53;13.95;;;10.02;;
42682;SDS011;28293;50.930;3.464;2022-07-23T00:12:18;13.57;;;10.93;;
42682;SDS011;28293;50.930;3.464;2022-07-23T00:14:44;16.63;;;10.77;;
42682;SDS011;28293;50.930;3.464;2022-07-23T00:17:10;14.93;;;10.35;;
42682;SDS011;28293;50.930;3.464;2022-07-23T00:19:35;15.23;;;10.73;;
42682;SDS011;28293;50.930;3.464;2022-07-23T00:22:01;14.32;;;11.10;;
42682;SDS011;28293;50.930;3.464;2022-07-23T00:24:27;12.48;;;9.90;;
42682;SDS011;28293;50.930;3.464;2022-07-23T00:26:52;13.20;;;10.10;;
42682;SDS011;28293;50.930;3.464;2022-07-23T00:29:18;14.77;;;11.10;;
42682;SDS011;28293;50.930;3.464;2022-07-23T00:31:44;13.45;;;10.48;;
42682;SDS011;28293;50.930;3.464;2022-07-23T00:34:09;12.82;;;10.35;;
42682;SDS011;28293;50.930;3.464;2022-07-23T00:36:35;13.85;;;10.57;;
42682;SDS011;28293;50.930;3.464;2022-07-23T00:39:01;13.38;;;10.23;;
42682;SDS011;28293;50.930;3.464;2022-07-23T00:41:26;17.05;;;11.52;;
42682;SDS011;28293;50.930;3.464;2022-07-23T00:43:52;15.55;;;11.13;;
42682;SDS011;28293;50.930;3.464;2022-07-23T00:46:21;13.32;;;10.80;;
42682;SDS011;28293;50.930;3.464;2022-07-23T00:48:47;18.52;;;12.43;;
42682;SDS011;28293;50.930;3.464;2022-07-23T00:51:16;14.50;;;10.40;;
42682;SDS011;28293;50.930;3.464;2022-07-23T00:53:42;12.27;;;10.55;;
42682;SDS011;28293;50.930;3.464;2022-07-23T00:56:09;14.55;;;10.90;;
42682;SDS011;28293;50.930;3.464;2022-07-23T00:58:35;14.15;;;11.45;;
42682;SDS011;28293;50.930;3.464;2022-07-23T01:01:01;16.48;;;12.00;;
42682;SDS011;28293;50.930;3.464;2022-07-23T01:03:27;16.05;;;11.73;;
42682;SDS011;28293;50.930;3.464;2022-07-23T01:05:53;14.20;;;11.05;;
42682;SDS011;28293;50.930;3.464;2022-07-23T01:08:19;14.23;;;11.43;;
42682;SDS011;28293;50.930;3.464;2022-07-23T01:10:45;14.80;;;11.40;;
42682;SDS011;28293;50.930;3.464;2022-07-23T01:13:13;14.85;;;11.02;;
42682;SDS011;28293;50.930;3.464;2022-07-23T01:15:39;13.63;;;10.52;;
42682;SDS011;28293;50.930;3.464;2022-07-23T01:18:05;15.70;;;12.02;;
42682;SDS011;28293;50.930;3.464;2022-07-23T01:20:32;14.25;;;11.80;;
42682;SDS011;28293;50.930;3.464;2022-07-23T01:22:58;16.10;;;12.27;;
42682;SDS011;28293;50.930;3.464;2022-07-23T01:25:24;13.90;;;11.55;;
42682;SDS011;28293;50.930;3.464;2022-07-23T01:27:51;15.05;;;12.00;;
42682;SDS011;28293;50.930;3.464;2022-07-23T01:30:18;17.25;;;12.05;;
42682;SDS011;28293;50.930;3.464;2022-07-23T01:32:44;13.10;;;11.10;;
42682;SDS011;28293;50.930;3.464;2022-07-23T01:35:09;15.60;;;11.65;;
42682;SDS011;28293;50.930;3.464;2022-07-23T01:37:36;12.60;;;10.40;;
42682;SDS011;28293;50.930;3.464;2022-07-23T01:40:02;13.73;;;11.82;;
42682;SDS011;28293;50.930;3.464;2022-07-23T01:42:29;16.70;;;12.30;;
42682;SDS011;28293;50.930;3.464;2022-07-23T01:44:55;15.43;;;11.70;;
42682;SDS011;28293;50.930;3.464;2022-07-23T01:47:21;13.95;;;11.27;;
42682;SDS011;28293;50.930;3.464;2022-07-23T01:49:47;15.65;;;12.00;;
42682;SDS011;28293;50.930;3.464;2022-07-23T01:52:12;13.75;;;10.95;;
42682;SDS011;28293;50.930;3.464;2022-07-23T01:54:38;16.83;;;11.75;;
42682;SDS011;28293;50.930;3.464;2022-07-23T01:57:05;15.82;;;12.18;;
42682;SDS011;28293;50.930;3.464;2022-07-23T01:59:31;14.57;;;12.45;;
42682;SDS011;28293;50.930;3.464;2022-07-23T02:01:57;15.18;;;12.02;;
42682;SDS011;28293;50.930;3.464;2022-07-23T02:04:23;14.15;;;11.73;;
42682;SDS011;28293;50.930;3.464;2022-07-23T02:06:50;14.18;;;11.35;;
42682;SDS011;28293;50.930;3.464;2022-07-23T02:09:17;14.15;;;11.77;;
42682;SDS011;28293;50.930;3.464;2022-07-23T02:11:43;13.85;;;11.00;;
42682;SDS011;28293;50.930;3.464;2022-07-23T02:14:09;15.52;;;12.02;;
42682;SDS011;28293;50.930;3.464;2022-07-23T02:16:34;16.92;;;12.27;;
42682;SDS011;28293;50.930;3.464;2022-07-23T02:19:00;15.70;;;11.48;;
42682;SDS011;28293;50.930;3.464;2022-07-23T02:21:26;17.25;;;12.98;;
42682;SDS011;28293;50.930;3.464;2022-07-23T02:23:51;14.77;;;13.15;;
42682;SDS011;28293;50.930;3.464;2022-07-23T02:26:17;17.63;;;13.82;;
42682;SDS011;28293;50.930;3.464;2022-07-23T02:28:42;15.00;;;12.27;;
42682;SDS011;28293;50.930;3.464;2022-07-23T02:31:08;16.15;;;13.48;;
42682;SDS011;28293;50.930;3.464;2022-07-23T02:33:34;16.55;;;13.45;;
42682;SDS011;28293;50.930;3.464;2022-07-23T02:36:00;17.38;;;13.20;;
42682;SDS011;28293;50.930;3.464;2022-07-23T02:38:26;16.48;;;13.93;;
42682;SDS011;28293;50.930;3.464;2022-07-23T02:40:51;17.70;;;13.05;;
42682;SDS011;28293;50.930;3.464;2022-07-23T02:43:17;17.77;;;14.00;;
42682;SDS011;28293;50.930;3.464;2022-07-23T02:45:43;17.65;;;14.60;;
42682;SDS011;28293;50.930;3.464;2022-07-23T02:48:09;17.10;;;13.50;;
42682;SDS011;28293;50.930;3.464;2022-07-23T02:50:37;16.50;;;13.25;;
42682;SDS011;28293;50.930;3.464;2022-07-23T02:53:03;19.58;;;15.10;;
42682;SDS011;28293;50.930;3.464;2022-07-23T02:55:29;18.58;;;14.25;;
42682;SDS011;28293;50.930;3.464;2022-07-23T02:57:56;18.70;;;14.98;;
42682;SDS011;28293;50.930;3.464;2022-07-23T03:00:21;18.92;;;15.25;;
42682;SDS011;28293;50.930;3.464;2022-07-23T03:02:47;16.17;;;13.13;;
42682;SDS011;28293;50.930;3.464;2022-07-23T03:05:13;18.05;;;13.50;;
42682;SDS011;28293;50.930;3.464;2022-07-23T03:07:39;15.00;;;13.20;;
42682;SDS011;28293;50.930;3.464;2022-07-23T03:10:04;13.77;;;12.18;;
42682;SDS011;28293;50.930;3.464;2022-07-23T03:12:30;18.40;;;14.32;;
42682;SDS011;28293;50.930;3.464;2022-07-23T03:14:56;16.13;;;13.13;;
42682;SDS011;28293;50.930;3.464;2022-07-23T03:17:21;15.90;;;12.82;;
42682;SDS011;28293;50.930;3.464;2022-07-23T03:19:47;14.80;;;12.30;;
42682;SDS011;28293;50.930;3.464;2022-07-23T03:22:12;13.57;;;11.85;;
42682;SDS011;28293;50.930;3.464;2022-07-23T03:24:38;15.15;;;11.65;;
42682;SDS011;28293;50.930;3.464;2022-07-23T03:27:19;14.02;;;11.50;;
42682;SDS011;28293;50.930;3.464;2022-07-23T03:29:45;15.60;;;12.68;;
42682;SDS011;28293;50.930;3.464;2022-07-23T03:32:11;16.02;;;12.20;;
42682;SDS011;28293;50.930;3.464;2022-07-23T03:34:37;14.20;;;12.38;;
42682;SDS011;28293;50.930;3.464;2022-07-23T03:37:02;16.35;;;12.38;;
42682;SDS011;28293;50.930;3.464;2022-07-23T03:39:28;13.85;;;11.60;;
42682;SDS011;28293;50.930;3.464;2022-07-23T03:41:54;15.75;;;13.00;;
42682;SDS011;28293;50.930;3.464;2022-07-23T03:44:19;18.08;;;15.02;;
42682;SDS011;28293;50.930;3.464;2022-07-23T03:46:45;16.10;;;13.85;;
42682;SDS011;28293;50.930;3.464;2022-07-23T03:49:13;15.50;;;13.15;;
42682;SDS011;28293;50.930;3.464;2022-07-23T03:51:39;18.70;;;14.13;;
42682;SDS011;28293;50.930;3.464;2022-07-23T03:54:04;17.25;;;13.43;;
42682;SDS011;28293;50.930;3.464;2022-07-23T03:56:30;15.15;;;13.43;;
42682;SDS011;28293;50.930;3.464;2022-07-23T03:58:56;14.35;;;12.23;;
42682;SDS011;28293;50.930;3.464;2022-07-23T04:01:21;16.05;;;13.27;;
42682;SDS011;28293;50.930;3.464;2022-07-23T04:03:47;17.70;;;14.52;;
42682;SDS011;28293;50.930;3.464;2022-07-23T04:06:12;17.52;;;12.90;;
42682;SDS011;28293;50.930;3.464;2022-07-23T04:08:38;17.73;;;14.88;;
42682;SDS011;28293;50.930;3.464;2022-07-23T04:11:04;15.55;;;13.60;;
42682;SDS011;28293;50.930;3.464;2022-07-23T04:13:30;18.95;;;15.05;;
42682;SDS011;28293;50.930;3.464;2022-07-23T04:15:57;17.70;;;14.50;;
42682;SDS011;28293;50.930;3.464;2022-07-23T04:18:23;21.80;;;14.85;;
42682;SDS011;28293;50.930;3.464;2022-07-23T04:20:50;18.90;;;14.77;;
42682;SDS011;28293;50.930;3.464;2022-07-23T04:23:16;18.88;;;14.80;;
42682;SDS011;28293;50.930;3.464;2022-07-23T04:25:42;18.45;;;14.80;;
42682;SDS011;28293;50.930;3.464;2022-07-23T04:28:07;19.35;;;15.30;;
42682;SDS011;28293;50.930;3.464;2022-07-23T04:30:33;19.85;;;16.45;;
42682;SDS011;28293;50.930;3.464;2022-07-23T04:32:59;20.55;;;16.42;;
42682;SDS011;28293;50.930;3.464;2022-07-23T04:35:25;18.17;;;14.68;;
42682;SDS011;28293;50.930;3.464;2022-07-23T04:37:50;20.98;;;16.38;;
42682;SDS011;28293;50.930;3.464;2022-07-23T04:40:16;20.58;;;16.33;;
42682;SDS011;28293;50.930;3.464;2022-07-23T04:42:42;24.85;;;17.73;;
42682;SDS011;28293;50.930;3.464;2022-07-23T04:45:07;23.13;;;18.73;;
42682;SDS011;28293;50.930;3.464;2022-07-23T04:47:33;21.75;;;19.25;;
42682;SDS011;28293;50.930;3.464;2022-07-23T04:49:59;23.73;;;19.17;;
42682;SDS011;28293;50.930;3.464;2022-07-23T04:52:28;22.63;;;19.38;;
42682;SDS011;28293;50.930;3.464;2022-07-23T04:54:53;20.05;;;16.85;;
42682;SDS011;28293;50.930;3.464;2022-07-23T04:57:19;19.40;;;16.65;;
42682;SDS011;28293;50.930;3.464;2022-07-23T04:59:44;23.70;;;18.65;;
42682;SDS011;28293;50.930;3.464;2022-07-23T05:02:10;20.30;;;17.75;;
42682;SDS011;28293;50.930;3.464;2022-07-23T05:04:35;20.42;;;16.10;;
42682;SDS011;28293;50.930;3.464;2022-07-23T05:07:02;18.00;;;15.98;;
42682;SDS011;28293;50.930;3.464;2022-07-23T05:09:28;18.35;;;15.88;;
42682;SDS011;28293;50.930;3.464;2022-07-23T05:11:53;20.17;;;16.20;;
42682;SDS011;28293;50.930;3.464;2022-07-23T05:14:19;18.08;;;16.13;;
42682;SDS011;28293;50.930;3.464;2022-07-23T05:16:45;18.23;;;14.93;;
42682;SDS011;28293;50.930;3.464;2022-07-23T05:19:10;17.65;;;15.55;;
42682;SDS011;28293;50.930;3.464;2022-07-23T05:21:36;17.45;;;14.50;;
42682;SDS011;28293;50.930;3.464;2022-07-23T05:24:01;17.55;;;14.07;;
42682;SDS011;28293;50.930;3.464;2022-07-23T05:26:27;16.25;;;12.90;;
42682;SDS011;28293;50.930;3.464;2022-07-23T05:28:53;17.30;;;14.02;;
42682;SDS011;28293;50.930;3.464;2022-07-23T05:31:18;18.02;;;14.57;;
42682;SDS011;28293;50.930;3.464;2022-07-23T05:33:44;16.00;;;13.75;;
42682;SDS011;28293;50.930;3.464;2022-07-23T05:36:10;17.75;;;14.75;;
42682;SDS011;28293;50.930;3.464;2022-07-23T05:38:35;22.58;;;14.85;;
42682;SDS011;28293;50.930;3.464;2022-07-23T05:41:01;19.55;;;13.55;;
42682;SDS011;28293;50.930;3.464;2022-07-23T05:43:27;23.45;;;13.13;;
42682;SDS011;28293;50.930;3.464;2022-07-23T05:45:53;16.40;;;12.60;;
42682;SDS011;28293;50.930;3.464;2022-07-23T05:48:19;17.48;;;12.73;;
42682;SDS011;28293;50.930;3.464;2022-07-23T05:50:45;17.95;;;11.68;;
42682;SDS011;28293;50.930;3.464;2022-07-23T05:53:11;17.77;;;12.13;;
42682;SDS011;28293;50.930;3.464;2022-07-23T05:55:37;15.68;;;11.15;;
42682;SDS011;28293;50.930;3.464;2022-07-23T05:58:03;17.23;;;12.20;;
42682;SDS011;28293;50.930;3.464;2022-07-23T06:00:28;16.88;;;12.48;;
42682;SDS011;28293;50.930;3.464;2022-07-23T06:02:54;15.15;;;12.35;;
42682;SDS011;28293;50.930;3.464;2022-07-23T06:05:20;15.50;;;13.05;;
42682;SDS011;28293;50.930;3.464;2022-07-23T06:07:45;18.15;;;13.40;;
42682;SDS011;28293;50.930;3.464;2022-07-23T06:10:11;16.40;;;14.20;;
42682;SDS011;28293;50.930;3.464;2022-07-23T06:12:37;15.18;;;13.27;;
42682;SDS011;28293;50.930;3.464;2022-07-23T06:15:03;17.60;;;15.10;;
42682;SDS011;28293;50.930;3.464;2022-07-23T06:17:29;18.92;;;15.00;;
42682;SDS011;28293;50.930;3.464;2022-07-23T06:19:55;16.30;;;13.85;;
42682;SDS011;28293;50.930;3.464;2022-07-23T06:22:21;19.60;;;15.43;;
42682;SDS011;28293;50.930;3.464;2022-07-23T06:24:47;19.17;;;15.48;;
42682;SDS011;28293;50.930;3.464;2022-07-23T06:27:13;18.85;;;14.90;;
42682;SDS011;28293;50.930;3.464;2022-07-23T06:29:39;19.38;;;14.60;;
42682;SDS011;28293;50.930;3.464;2022-07-23T06:32:06;18.92;;;15.23;;
42682;SDS011;28293;50.930;3.464;2022-07-23T06:34:32;22.17;;;15.10;;
42682;SDS011;28293;50.930;3.464;2022-07-23T06:36:58;16.77;;;14.80;;
42682;SDS011;28293;50.930;3.464;2022-07-23T06:39:23;18.90;;;15.65;;
42682;SDS011;28293;50.930;3.464;2022-07-23T06:41:49;18.02;;;14.48;;
42682;SDS011;28293;50.930;3.464;2022-07-23T06:44:15;18.08;;;14.70;;
42682;SDS011;28293;50.930;3.464;2022-07-23T06:46:40;18.52;;;13.77;;
42682;SDS011;28293;50.930;3.464;2022-07-23T06:49:06;17.83;;;14.68;;
42682;SDS011;28293;50.930;3.464;2022-07-23T06:51:32;19.30;;;14.30;;
42682;SDS011;28293;50.930;3.464;2022-07-23T06:53:58;18.25;;;13.38;;
42682;SDS011;28293;50.930;3.464;2022-07-23T06:56:24;19.50;;;14.80;;
42682;SDS011;28293;50.930;3.464;2022-07-23T06:58:49;18.52;;;14.95;;
42682;SDS011;28293;50.930;3.464;2022-07-23T07:01:15;18.55;;;14.82;;
42682;SDS011;28293;50.930;3.464;2022-07-23T07:03:41;19.17;;;14.65;;
42682;SDS011;28293;50.930;3.464;2022-07-23T07:06:06;18.88;;;13.45;;
42682;SDS011;28293;50.930;3.464;2022-07-23T07:08:32;16.20;;;14.02;;
42682;SDS011;28293;50.930;3.464;2022-07-23T07:10:58;18.30;;;14.18;;
42682;SDS011;28293;50.930;3.464;2022-07-23T07:13:23;17.08;;;13.48;;
42682;SDS011;28293;50.930;3.464;2022-07-23T07:15:49;17.90;;;13.07;;
42682;SDS011;28293;50.930;3.464;2022-07-23T07:18:15;15.95;;;12.85;;
42682;SDS011;28293;50.930;3.464;2022-07-23T07:20:40;18.73;;;14.10;;
42682;SDS011;28293;50.930;3.464;2022-07-23T07:23:06;15.70;;;12.48;;
42682;SDS011;28293;50.930;3.464;2022-07-23T07:25:31;16.38;;;13.20;;
42682;SDS011;28293;50.930;3.464;2022-07-23T07:27:57;19.02;;;14.40;;
42682;SDS011;28293;50.930;3.464;2022-07-23T07:30:23;16.65;;;13.55;;
42682;SDS011;28293;50.930;3.464;2022-07-23T07:32:48;14.43;;;12.20;;
42682;SDS011;28293;50.930;3.464;2022-07-23T07:35:14;16.42;;;13.70;;
42682;SDS011;28293;50.930;3.464;2022-07-23T07:37:40;16.80;;;12.88;;
42682;SDS011;28293;50.930;3.464;2022-07-23T07:40:06;17.98;;;13.45;;
42682;SDS011;28293;50.930;3.464;2022-07-23T07:42:32;17.48;;;13.68;;
42682;SDS011;28293;50.930;3.464;2022-07-23T07:44:57;16.95;;;12.00;;
42682;SDS011;28293;50.930;3.464;2022-07-23T07:47:23;19.40;;;14.80;;
42682;SDS011;28293;50.930;3.464;2022-07-23T07:49:49;15.40;;;12.80;;
42682;SDS011;28293;50.930;3.464;2022-07-23T07:52:14;14.23;;;12.15;;
42682;SDS011;28293;50.930;3.464;2022-07-23T07:54:40;15.93;;;11.93;;
42682;SDS011;28293;50.930;3.464;2022-07-23T07:57:06;14.45;;;11.57;;
42682;SDS011;28293;50.930;3.464;2022-07-23T07:59:31;17.83;;;13.68;;
42682;SDS011;28293;50.930;3.464;2022-07-23T08:01:57;18.00;;;13.15;;
42682;SDS011;28293;50.930;3.464;2022-07-23T08:04:23;17.77;;;12.65;;
42682;SDS011;28293;50.930;3.464;2022-07-23T08:06:48;17.25;;;12.88;;
42682;SDS011;28293;50.930;3.464;2022-07-23T08:09:14;15.20;;;11.70;;
42682;SDS011;28293;50.930;3.464;2022-07-23T08:11:39;16.55;;;13.30;;
42682;SDS011;28293;50.930;3.464;2022-07-23T08:14:05;19.90;;;13.18;;
42682;SDS011;28293;50.930;3.464;2022-07-23T08:16:31;14.02;;;10.90;;
42682;SDS011;28293;50.930;3.464;2022-07-23T08:18:56;16.30;;;12.48;;
42682;SDS011;28293;50.930;3.464;2022-07-23T08:21:22;14.25;;;11.82;;
42682;SDS011;28293;50.930;3.464;2022-07-23T08:23:48;18.10;;;13.10;;
42682;SDS011;28293;50.930;3.464;2022-07-23T08:26:13;18.50;;;14.23;;
42682;SDS011;28293;50.930;3.464;2022-07-23T08:28:39;18.55;;;13.30;;
42682;SDS011;28293;50.930;3.464;2022-07-23T08:31:05;18.00;;;13.18;;
42682;SDS011;28293;50.930;3.464;2022-07-23T08:33:30;15.65;;;11.90;;
42682;SDS011;28293;50.930;3.464;2022-07-23T08:35:57;18.05;;;12.23;;
42682;SDS011;28293;50.930;3.464;2022-07-23T08:38:23;19.20;;;12.68;;
42682;SDS011;28293;50.930;3.464;2022-07-23T08:40:54;15.00;;;11.82;;
42682;SDS011;28293;50.930;3.464;2022-07-23T08:43:26;15.48;;;12.05;;
42682;SDS011;28293;50.930;3.464;2022-07-23T08:45:57;13.85;;;10.35;;
42682;SDS011;28293;50.930;3.464;2022-07-23T08:48:27;18.33;;;12.52;;
42682;SDS011;28293;50.930;3.464;2022-07-23T08:51:00;12.95;;;10.30;;
42682;SDS011;28293;50.930;3.464;2022-07-23T08:53:28;13.85;;;11.07;;
42682;SDS011;28293;50.930;3.464;2022-07-23T08:55:55;16.45;;;11.38;;
42682;SDS011;28293;50.930;3.464;2022-07-23T08:58:23;14.90;;;11.50;;
42682;SDS011;28293;50.930;3.464;2022-07-23T09:00:49;14.00;;;10.40;;
42682;SDS011;28293;50.930;3.464;2022-07-23T09:03:16;15.27;;;11.20;;
42682;SDS011;28293;50.930;3.464;2022-07-23T09:05:43;12.25;;;8.88;;
42682;SDS011;28293;50.930;3.464;2022-07-23T09:08:11;10.65;;;8.45;;
42682;SDS011;28293;50.930;3.464;2022-07-23T09:13:24;10.50;;;5.82;;
42682;SDS011;28293;50.930;3.464;2022-07-23T09:15:50;10.35;;;5.60;;
42682;SDS011;28293;50.930;3.464;2022-07-23T09:18:18;11.18;;;6.78;;
42682;SDS011;28293;50.930;3.464;2022-07-23T09:20:44;6.50;;;3.80;;
42682;SDS011;28293;50.930;3.464;2022-07-23T09:23:09;10.30;;;6.72;;
42682;SDS011;28293;50.930;3.464;2022-07-23T09:25:35;8.50;;;5.35;;
42682;SDS011;28293;50.930;3.464;2022-07-23T09:28:01;9.02;;;5.10;;
42682;SDS011;28293;50.930;3.464;2022-07-23T09:30:31;11.95;;;8.43;;
42682;SDS011;28293;50.930;3.464;2022-07-23T09:33:12;11.48;;;7.45;;
42682;SDS011;28293;50.930;3.464;2022-07-23T09:35:58;10.57;;;7.45;;
42682;SDS011;28293;50.930;3.464;2022-07-23T09:38:24;9.98;;;6.32;;
42682;SDS011;28293;50.930;3.464;2022-07-23T09:41:06;9.25;;;5.82;;
42682;SDS011;28293;50.930;3.464;2022-07-23T09:43:33;8.57;;;5.10;;
42682;SDS011;28293;50.930;3.464;2022-07-23T09:48:44;9.80;;;5.43;;
42682;SDS011;28293;50.930;3.464;2022-07-23T09:51:10;12.23;;;7.40;;
42682;SDS011;28293;50.930;3.464;2022-07-23T09:53:36;10.82;;;7.32;;
42682;SDS011;28293;50.930;3.464;2022-07-23T09:56:01;11.30;;;6.72;;
42682;SDS011;28293;50.930;3.464;2022-07-23T09:58:27;8.85;;;6.43;;
42682;SDS011;28293;50.930;3.464;2022-07-23T10:00:55;11.23;;;7.85;;
42682;SDS011;28293;50.930;3.464;2022-07-23T10:03:22;11.90;;;7.53;;
42682;SDS011;28293;50.930;3.464;2022-07-23T10:05:49;10.75;;;8.13;;
42682;SDS011;28293;50.930;3.464;2022-07-23T10:08:17;12.43;;;7.30;;
42682;SDS011;28293;50.930;3.464;2022-07-23T10:10:45;11.73;;;7.63;;
42682;SDS011;28293;50.930;3.464;2022-07-23T10:13:12;10.90;;;7.30;;
42682;SDS011;28293;50.930;3.464;2022-07-23T10:15:57;8.65;;;6.47;;
42682;SDS011;28293;50.930;3.464;2022-07-23T10:18:23;12.70;;;8.35;;
42682;SDS011;28293;50.930;3.464;2022-07-23T10:20:49;12.50;;;8.88;;
42682;SDS011;28293;50.930;3.464;2022-07-23T10:23:28;12.63;;;7.82;;
42682;SDS011;28293;50.930;3.464;2022-07-23T10:29:02;11.10;;;8.32;;
42682;SDS011;28293;50.930;3.464;2022-07-23T10:32:02;11.32;;;8.82;;
42682;SDS011;28293;50.930;3.464;2022-07-23T10:34:44;14.18;;;8.18;;
42682;SDS011;28293;50.930;3.464;2022-07-23T10:37:36;13.57;;;8.95;;
42682;SDS011;28293;50.930;3.464;2022-07-23T10:40:12;11.32;;;9.63;;
42682;SDS011;28293;50.930;3.464;2022-07-23T10:42:48;12.60;;;9.00;;
42682;SDS011;28293;50.930;3.464;2022-07-23T10:48:21;13.25;;;8.15;;
42682;SDS011;28293;50.930;3.464;2022-07-23T10:51:11;11.45;;;8.68;;
42682;SDS011;28293;50.930;3.464;2022-07-23T10:59:21;11.93;;;7.28;;
42682;SDS011;28293;50.930;3.464;2022-07-23T11:01:48;12.88;;;8.63;;
42682;SDS011;28293;50.930;3.464;2022-07-23T11:04:14;12.18;;;7.88;;
42682;SDS011;28293;50.930;3.464;2022-07-23T11:07:23;11.57;;;7.82;;
42682;SDS011;28293;50.930;3.464;2022-07-23T11:15:04;7.85;;;5.28;;
42682;SDS011;28293;50.930;3.464;2022-07-23T11:20:17;8.10;;;5.38;;
42682;SDS011;28293;50.930;3.464;2022-07-23T11:27:48;8.32;;;5.95;;
42682;SDS011;28293;50.930;3.464;2022-07-23T11:33:15;11.60;;;6.00;;
42682;SDS011;28293;50.930;3.464;2022-07-23T11:35:40;10.20;;;5.22;;
42682;SDS011;28293;50.930;3.464;2022-07-23T11:38:08;6.95;;;4.00;;
42682;SDS011;28293;50.930;3.464;2022-07-23T11:40:40;10.30;;;5.28;;
42682;SDS011;28293;50.930;3.464;2022-07-23T11:43:07;11.55;;;6.60;;
42682;SDS011;28293;50.930;3.464;2022-07-23T11:45:35;10.20;;;6.50;;
42682;SDS011;28293;50.930;3.464;2022-07-23T11:48:15;10.27;;;5.70;;
42682;SDS011;28293;50.930;3.464;2022-07-23T11:50:46;9.80;;;5.07;;
42682;SDS011;28293;50.930;3.464;2022-07-23T11:53:13;9.60;;;5.20;;
42682;SDS011;28293;50.930;3.464;2022-07-23T11:55:38;9.25;;;5.32;;
42682;SDS011;28293;50.930;3.464;2022-07-23T11:58:04;8.90;;;5.07;;
42682;SDS011;28293;50.930;3.464;2022-07-23T12:00:31;7.78;;;5.00;;
42682;SDS011;28293;50.930;3.464;2022-07-23T12:02:59;7.80;;;4.47;;
42682;SDS011;28293;50.930;3.464;2022-07-23T12:05:28;16.05;;;4.68;;
42682;SDS011;28293;50.930;3.464;2022-07-23T12:07:58;8.55;;;4.57;;
42682;SDS011;28293;50.930;3.464;2022-07-23T12:13:06;8.52;;;4.65;;
42682;SDS011;28293;50.930;3.464;2022-07-23T12:18:07;10.70;;;4.72;;
42682;SDS011;28293;50.930;3.464;2022-07-23T12:20:39;11.45;;;5.82;;
42682;SDS011;28293;50.930;3.464;2022-07-23T12:23:10;8.40;;;4.95;;
42682;SDS011;28293;50.930;3.464;2022-07-23T12:25:39;9.43;;;5.40;;
42682;SDS011;28293;50.930;3.464;2022-07-23T12:28:12;8.30;;;4.72;;
42682;SDS011;28293;50.930;3.464;2022-07-23T12:30:54;10.15;;;5.40;;
42682;SDS011;28293;50.930;3.464;2022-07-23T12:33:24;15.60;;;6.40;;
42682;SDS011;28293;50.930;3.464;2022-07-23T12:35:52;8.50;;;5.20;;
42682;SDS011;28293;50.930;3.464;2022-07-23T12:38:20;8.50;;;4.30;;
42682;SDS011;28293;50.930;3.464;2022-07-23T12:40:48;8.40;;;5.25;;
42682;SDS011;28293;50.930;3.464;2022-07-23T12:43:21;8.35;;;5.10;;
42682;SDS011;28293;50.930;3.464;2022-07-23T12:46:02;8.43;;;5.28;;
42682;SDS011;28293;50.930;3.464;2022-07-23T12:48:32;8.05;;;5.18;;
42682;SDS011;28293;50.930;3.464;2022-07-23T12:56:31;8.55;;;5.30;;
42682;SDS011;28293;50.930;3.464;2022-07-23T12:58:53;7.90;;;5.28;;
42682;SDS011;28293;50.930;3.464;2022-07-23T13:06:36;9.20;;;6.13;;
42682;SDS011;28293;50.930;3.464;2022-07-23T13:09:05;9.75;;;5.88;;
42682;SDS011;28293;50.930;3.464;2022-07-23T13:11:33;10.57;;;6.40;;
42682;SDS011;28293;50.930;3.464;2022-07-23T13:14:00;8.60;;;6.10;;
42682;SDS011;28293;50.930;3.464;2022-07-23T13:16:27;9.73;;;7.20;;
42682;SDS011;28293;50.930;3.464;2022-07-23T13:18:54;8.70;;;6.32;;
42682;SDS011;28293;50.930;3.464;2022-07-23T13:21:21;10.68;;;6.68;;
42682;SDS011;28293;50.930;3.464;2022-07-23T13:23:48;11.40;;;7.40;;
42682;SDS011;28293;50.930;3.464;2022-07-23T13:26:14;12.65;;;7.15;;
42682;SDS011;28293;50.930;3.464;2022-07-23T13:28:40;14.30;;;6.90;;
42682;SDS011;28293;50.930;3.464;2022-07-23T13:31:05;9.95;;;6.72;;
42682;SDS011;28293;50.930;3.464;2022-07-23T13:33:32;9.45;;;7.13;;
42682;SDS011;28293;50.930;3.464;2022-07-23T13:35:58;10.20;;;6.50;;
42682;SDS011;28293;50.930;3.464;2022-07-23T13:38:25;12.07;;;7.45;;
42682;SDS011;28293;50.930;3.464;2022-07-23T13:40:51;10.40;;;7.60;;
42682;SDS011;28293;50.930;3.464;2022-07-23T13:43:19;11.25;;;7.63;;
42682;SDS011;28293;50.930;3.464;2022-07-23T13:45:46;9.18;;;6.95;;
42682;SDS011;28293;50.930;3.464;2022-07-23T13:48:12;10.35;;;7.78;;
42682;SDS011;28293;50.930;3.464;2022-07-23T13:50:39;11.65;;;8.02;;
42682;SDS011;28293;50.930;3.464;2022-07-23T13:53:07;10.63;;;8.50;;
42682;SDS011;28293;50.930;3.464;2022-07-23T13:55:39;10.03;;;7.90;;
42682;SDS011;28293;50.930;3.464;2022-07-23T13:58:06;12.88;;;7.95;;
42682;SDS011;28293;50.930;3.464;2022-07-23T14:00:33;12.15;;;8.65;;
42682;SDS011;28293;50.930;3.464;2022-07-23T14:03:00;14.95;;;8.85;;
42682;SDS011;28293;50.930;3.464;2022-07-23T14:05:27;13.13;;;8.57;;
42682;SDS011;28293;50.930;3.464;2022-07-23T14:07:53;10.30;;;8.00;;
42682;SDS011;28293;50.930;3.464;2022-07-23T14:10:20;12.38;;;9.05;;
42682;SDS011;28293;50.930;3.464;2022-07-23T14:12:48;12.07;;;8.43;;
42682;SDS011;28293;50.930;3.464;2022-07-23T14:15:15;11.00;;;7.32;;
42682;SDS011;28293;50.930;3.464;2022-07-23T14:17:42;10.25;;;7.03;;
42682;SDS011;28293;50.930;3.464;2022-07-23T14:20:10;11.13;;;7.60;;
42682;SDS011;28293;50.930;3.464;2022-07-23T14:22:38;11.18;;;7.80;;
42682;SDS011;28293;50.930;3.464;2022-07-23T14:25:04;10.88;;;8.25;;
42682;SDS011;28293;50.930;3.464;2022-07-23T14:27:31;10.95;;;7.95;;
42682;SDS011;28293;50.930;3.464;2022-07-23T14:29:57;10.60;;;7.35;;
42682;SDS011;28293;50.930;3.464;2022-07-23T14:32:23;9.65;;;7.25;;
42682;SDS011;28293;50.930;3.464;2022-07-23T14:34:49;10.45;;;7.60;;
42682;SDS011;28293;50.930;3.464;2022-07-23T14:37:15;10.43;;;7.55;;
42682;SDS011;28293;50.930;3.464;2022-07-23T14:39:42;10.00;;;7.97;;
42682;SDS011;28293;50.930;3.464;2022-07-23T14:42:08;10.98;;;6.93;;
42682;SDS011;28293;50.930;3.464;2022-07-23T14:44:35;12.60;;;7.97;;
42682;SDS011;28293;50.930;3.464;2022-07-23T14:47:02;10.90;;;7.97;;
42682;SDS011;28293;50.930;3.464;2022-07-23T14:49:29;10.50;;;7.10;;
42682;SDS011;28293;50.930;3.464;2022-07-23T14:51:58;9.90;;;7.68;;
42682;SDS011;28293;50.930;3.464;2022-07-23T14:54:24;9.65;;;8.00;;
42682;SDS011;28293;50.930;3.464;2022-07-23T14:56:52;9.55;;;6.25;;
42682;SDS011;28293;50.930;3.464;2022-07-23T14:59:19;11.57;;;7.05;;
42682;SDS011;28293;50.930;3.464;2022-07-23T15:01:45;13.52;;;7.00;;
42682;SDS011;28293;50.930;3.464;2022-07-23T15:04:10;9.27;;;6.50;;
42682;SDS011;28293;50.930;3.464;2022-07-23T15:06:36;9.40;;;7.05;;
42682;SDS011;28293;50.930;3.464;2022-07-23T15:09:03;10.80;;;6.72;;
42682;SDS011;28293;50.930;3.464;2022-07-23T15:11:30;8.80;;;6.38;;
42682;SDS011;28293;50.930;3.464;2022-07-23T15:13:59;13.30;;;6.68;;
42682;SDS011;28293;50.930;3.464;2022-07-23T15:16:29;9.13;;;5.82;;